Virginia, Nebraska
Current Conditions -  °F | °C
As of 3:15 AM on Monday 24 Nov 2014 (Local Time) from KBIE Reporting Station
Overcast Overcast  
Wind Chill: 20°   Ceiling: 3400
Heat Index: 32°   Visibility: 10mi
Dew Point: 22°   Wind: 17mph
Humidity: 68%   Direction: 310°NW
Pressure: 29.62"   Gusts: 23mph
Location:  40.25°N, 96.5°W
Report Text: KBIE 240915Z AUTO 31015G20KT 10SM OVC034 00/M05 A2962 RMK AO2 T10021055
Loading
Personal Weather Stations






























Interactive Weather Map New forecast layout! Learn more

10-Day Weather Forecast

Advertisements
Track Severe Weather on mobile